sensor_id;sensor_type;location;lat;lon;timestamp;temperature;humidity
40638;DHT22;26336;44.696;10.622;2023-01-29T00:00:51;3.30;99.90
40638;DHT22;26336;44.696;10.622;2023-01-29T00:03:56;3.20;99.90
40638;DHT22;26336;44.696;10.622;2023-01-29T00:07:00;3.20;99.90
40638;DHT22;26336;44.696;10.622;2023-01-29T00:10:05;3.20;99.90
40638;DHT22;26336;44.696;10.622;2023-01-29T00:13:09;3.20;99.90
40638;DHT22;26336;44.696;10.622;2023-01-29T00:16:13;3.20;99.90
40638;DHT22;26336;44.696;10.622;2023-01-29T00:19:16;3.20;99.90
40638;DHT22;26336;44.696;10.622;2023-01-29T00:22:22;3.10;99.90
40638;DHT22;26336;44.696;10.622;2023-01-29T00:25:27;3.10;99.90
40638;DHT22;26336;44.696;10.622;2023-01-29T00:28:31;3.10;99.90
40638;DHT22;26336;44.696;10.622;2023-01-29T00:31:34;3.10;99.90
40638;DHT22;26336;44.696;10.622;2023-01-29T00:34:38;3.10;99.90
40638;DHT22;26336;44.696;10.622;2023-01-29T00:37:42;3.10;99.90
40638;DHT22;26336;44.696;10.622;2023-01-29T00:40:46;3.10;99.90
40638;DHT22;26336;44.696;10.622;2023-01-29T00:44:08;3.10;99.90
40638;DHT22;26336;44.696;10.622;2023-01-29T00:47:31;3.10;99.90
40638;DHT22;26336;44.696;10.622;2023-01-29T00:50:37;3.10;99.90
40638;DHT22;26336;44.696;10.622;2023-01-29T00:53:42;3.20;99.90
40638;DHT22;26336;44.696;10.622;2023-01-29T00:56:46;3.10;99.90
40638;DHT22;26336;44.696;10.622;2023-01-29T00:59:50;3.10;99.90
40638;DHT22;26336;44.696;10.622;2023-01-29T01:02:54;3.10;99.90
40638;DHT22;26336;44.696;10.622;2023-01-29T01:06:11;3.10;99.90
40638;DHT22;26336;44.696;10.622;2023-01-29T01:09:14;3.10;99.90
40638;DHT22;26336;44.696;10.622;2023-01-29T01:12:38;3.10;99.90
40638;DHT22;26336;44.696;10.622;2023-01-29T01:15:43;3.10;99.90
40638;DHT22;26336;44.696;10.622;2023-01-29T01:18:47;3.10;99.90
40638;DHT22;26336;44.696;10.622;2023-01-29T01:21:51;3.10;99.90
40638;DHT22;26336;44.696;10.622;2023-01-29T01:24:54;3.10;99.90
40638;DHT22;26336;44.696;10.622;2023-01-29T01:27:59;3.00;99.90
40638;DHT22;26336;44.696;10.622;2023-01-29T01:31:10;3.10;99.90
40638;DHT22;26336;44.696;10.622;2023-01-29T01:34:15;3.10;99.90
40638;DHT22;26336;44.696;10.622;2023-01-29T01:37:19;3.10;99.90
40638;DHT22;26336;44.696;10.622;2023-01-29T01:40:24;3.00;99.90
40638;DHT22;26336;44.696;10.622;2023-01-29T01:43:58;3.00;99.90
40638;DHT22;26336;44.696;10.622;2023-01-29T01:47:02;3.00;99.90
40638;DHT22;26336;44.696;10.622;2023-01-29T01:50:23;3.00;99.90
40638;DHT22;26336;44.696;10.622;2023-01-29T01:53:41;3.00;99.90
40638;DHT22;26336;44.696;10.622;2023-01-29T01:56:51;3.00;99.90
40638;DHT22;26336;44.696;10.622;2023-01-29T02:00:03;3.00;99.90
40638;DHT22;26336;44.696;10.622;2023-01-29T02:03:19;2.90;99.90
40638;DHT22;26336;44.696;10.622;2023-01-29T02:06:43;2.90;99.90
40638;DHT22;26336;44.696;10.622;2023-01-29T02:10:11;2.90;99.90
40638;DHT22;26336;44.696;10.622;2023-01-29T02:13:17;2.90;99.90
40638;DHT22;26336;44.696;10.622;2023-01-29T02:16:22;2.90;99.90
40638;DHT22;26336;44.696;10.622;2023-01-29T02:19:37;2.80;99.90
40638;DHT22;26336;44.696;10.622;2023-01-29T02:26:14;2.70;99.90
40638;DHT22;26336;44.696;10.622;2023-01-29T02:32:59;2.70;99.90
40638;DHT22;26336;44.696;10.622;2023-01-29T02:36:29;2.60;99.90
40638;DHT22;26336;44.696;10.622;2023-01-29T02:40:04;2.70;99.90
40638;DHT22;26336;44.696;10.622;2023-01-29T02:43:15;2.60;99.90
40638;DHT22;26336;44.696;10.622;2023-01-29T02:46:30;2.70;99.90
40638;DHT22;26336;44.696;10.622;2023-01-29T02:56:41;2.70;99.90
40638;DHT22;26336;44.696;10.622;2023-01-29T02:59:52;2.70;99.90
40638;DHT22;26336;44.696;10.622;2023-01-29T03:03:19;2.70;99.90
40638;DHT22;26336;44.696;10.622;2023-01-29T03:06:27;2.60;99.90
40638;DHT22;26336;44.696;10.622;2023-01-29T03:09:43;2.60;99.90
40638;DHT22;26336;44.696;10.622;2023-01-29T03:13:05;2.60;99.90
40638;DHT22;26336;44.696;10.622;2023-01-29T03:16:16;2.50;99.90
40638;DHT22;26336;44.696;10.622;2023-01-29T03:19:36;2.50;99.90
40638;DHT22;26336;44.696;10.622;2023-01-29T03:22:55;2.40;99.90
40638;DHT22;26336;44.696;10.622;2023-01-29T03:26:00;2.40;99.90
40638;DHT22;26336;44.696;10.622;2023-01-29T03:29:23;2.30;99.90
40638;DHT22;26336;44.696;10.622;2023-01-29T03:32:48;2.30;99.90
40638;DHT22;26336;44.696;10.622;2023-01-29T03:36:04;2.30;99.90
40638;DHT22;26336;44.696;10.622;2023-01-29T03:39:10;2.30;99.90
40638;DHT22;26336;44.696;10.622;2023-01-29T03:45:38;2.30;99.90
40638;DHT22;26336;44.696;10.622;2023-01-29T03:52:32;2.20;99.90
40638;DHT22;26336;44.696;10.622;2023-01-29T03:55:52;2.10;99.90
40638;DHT22;26336;44.696;10.622;2023-01-29T03:59:03;2.10;99.90
40638;DHT22;26336;44.696;10.622;2023-01-29T04:06:06;2.10;99.90
40638;DHT22;26336;44.696;10.622;2023-01-29T04:10:07;2.10;99.90
40638;DHT22;26336;44.696;10.622;2023-01-29T04:13:15;2.20;99.90
40638;DHT22;26336;44.696;10.622;2023-01-29T04:16:26;2.10;99.90
40638;DHT22;26336;44.696;10.622;2023-01-29T04:20:00;2.20;99.90
40638;DHT22;26336;44.696;10.622;2023-01-29T04:23:06;2.20;99.90
40638;DHT22;26336;44.696;10.622;2023-01-29T04:29:42;2.00;99.90
40638;DHT22;26336;44.696;10.622;2023-01-29T04:40:02;2.00;99.90
40638;DHT22;26336;44.696;10.622;2023-01-29T04:43:31;1.90;99.90
40638;DHT22;26336;44.696;10.622;2023-01-29T04:51:03;1.80;99.90
40638;DHT22;26336;44.696;10.622;2023-01-29T04:57:24;1.90;99.90
40638;DHT22;26336;44.696;10.622;2023-01-29T05:00:36;1.90;99.90
40638;DHT22;26336;44.696;10.622;2023-01-29T05:03:43;1.90;99.90
40638;DHT22;26336;44.696;10.622;2023-01-29T05:06:50;1.50;99.90
40638;DHT22;26336;44.696;10.622;2023-01-29T05:09:57;1.60;99.90
40638;DHT22;26336;44.696;10.622;2023-01-29T05:13:05;1.70;99.90
40638;DHT22;26336;44.696;10.622;2023-01-29T05:16:26;1.50;99.90
40638;DHT22;26336;44.696;10.622;2023-01-29T05:19:31;1.50;99.90
40638;DHT22;26336;44.696;10.622;2023-01-29T05:22:36;1.60;99.90
40638;DHT22;26336;44.696;10.622;2023-01-29T05:25:42;1.70;99.90
40638;DHT22;26336;44.696;10.622;2023-01-29T05:28:46;1.70;99.90
40638;DHT22;26336;44.696;10.622;2023-01-29T05:31:50;1.80;99.90
40638;DHT22;26336;44.696;10.622;2023-01-29T05:34:54;1.80;99.90
40638;DHT22;26336;44.696;10.622;2023-01-29T05:37:58;1.80;99.90
40638;DHT22;26336;44.696;10.622;2023-01-29T05:41:02;1.80;99.90
40638;DHT22;26336;44.696;10.622;2023-01-29T05:44:06;1.80;99.90
40638;DHT22;26336;44.696;10.622;2023-01-29T05:47:10;1.80;99.90
40638;DHT22;26336;44.696;10.622;2023-01-29T05:50:14;1.80;99.90
40638;DHT22;26336;44.696;10.622;2023-01-29T05:53:19;1.80;99.90
40638;DHT22;26336;44.696;10.622;2023-01-29T05:56:23;1.80;99.90
40638;DHT22;26336;44.696;10.622;2023-01-29T05:59:27;1.80;99.90
40638;DHT22;26336;44.696;10.622;2023-01-29T06:02:33;1.80;99.90
40638;DHT22;26336;44.696;10.622;2023-01-29T06:05:38;1.80;99.90
40638;DHT22;26336;44.696;10.622;2023-01-29T06:08:42;1.70;99.90
40638;DHT22;26336;44.696;10.622;2023-01-29T06:11:46;1.70;99.90
40638;DHT22;26336;44.696;10.622;2023-01-29T06:14:50;1.70;99.90
40638;DHT22;26336;44.696;10.622;2023-01-29T06:17:55;1.70;99.90
40638;DHT22;26336;44.696;10.622;2023-01-29T06:21:00;1.70;99.90
40638;DHT22;26336;44.696;10.622;2023-01-29T06:24:05;1.70;99.90
40638;DHT22;26336;44.696;10.622;2023-01-29T06:27:09;1.80;99.90
40638;DHT22;26336;44.696;10.622;2023-01-29T06:30:13;1.80;99.90
40638;DHT22;26336;44.696;10.622;2023-01-29T06:33:17;1.70;99.90
40638;DHT22;26336;44.696;10.622;2023-01-29T06:36:21;1.70;99.90
40638;DHT22;26336;44.696;10.622;2023-01-29T06:39:25;1.60;99.90
40638;DHT22;26336;44.696;10.622;2023-01-29T06:42:29;1.60;99.90
40638;DHT22;26336;44.696;10.622;2023-01-29T06:45:33;1.50;99.90
40638;DHT22;26336;44.696;10.622;2023-01-29T06:48:37;1.60;99.90
40638;DHT22;26336;44.696;10.622;2023-01-29T06:51:42;1.50;99.90
40638;DHT22;26336;44.696;10.622;2023-01-29T06:54:46;1.50;99.90
40638;DHT22;26336;44.696;10.622;2023-01-29T06:57:50;1.60;99.90
40638;DHT22;26336;44.696;10.622;2023-01-29T07:01:00;1.60;99.90
40638;DHT22;26336;44.696;10.622;2023-01-29T07:04:04;1.60;99.90
40638;DHT22;26336;44.696;10.622;2023-01-29T07:07:08;1.60;99.90
40638;DHT22;26336;44.696;10.622;2023-01-29T07:10:15;1.70;99.90
40638;DHT22;26336;44.696;10.622;2023-01-29T07:13:19;1.70;99.90
40638;DHT22;26336;44.696;10.622;2023-01-29T07:16:23;1.70;99.90
40638;DHT22;26336;44.696;10.622;2023-01-29T07:19:29;1.70;99.90
40638;DHT22;26336;44.696;10.622;2023-01-29T07:22:33;1.70;99.90
40638;DHT22;26336;44.696;10.622;2023-01-29T07:25:36;1.70;99.90
40638;DHT22;26336;44.696;10.622;2023-01-29T07:28:40;1.70;99.90
40638;DHT22;26336;44.696;10.622;2023-01-29T07:31:44;1.70;99.90
40638;DHT22;26336;44.696;10.622;2023-01-29T07:34:48;1.70;99.90
40638;DHT22;26336;44.696;10.622;2023-01-29T07:37:52;1.70;99.90
40638;DHT22;26336;44.696;10.622;2023-01-29T07:40:57;1.70;99.90
40638;DHT22;26336;44.696;10.622;2023-01-29T07:44:01;1.70;99.90
40638;DHT22;26336;44.696;10.622;2023-01-29T07:47:05;1.70;99.90
40638;DHT22;26336;44.696;10.622;2023-01-29T07:50:09;1.80;99.90
40638;DHT22;26336;44.696;10.622;2023-01-29T07:53:14;1.80;99.90
40638;DHT22;26336;44.696;10.622;2023-01-29T07:56:18;1.80;99.90
40638;DHT22;26336;44.696;10.622;2023-01-29T07:59:24;1.80;99.90
40638;DHT22;26336;44.696;10.622;2023-01-29T08:02:28;1.80;99.90
40638;DHT22;26336;44.696;10.622;2023-01-29T08:05:32;1.90;99.90
40638;DHT22;26336;44.696;10.622;2023-01-29T08:08:36;2.00;99.90
40638;DHT22;26336;44.696;10.622;2023-01-29T08:11:40;2.10;99.90
40638;DHT22;26336;44.696;10.622;2023-01-29T08:14:44;2.20;99.90
40638;DHT22;26336;44.696;10.622;2023-01-29T08:17:49;2.30;99.90
40638;DHT22;26336;44.696;10.622;2023-01-29T08:20:58;2.40;99.90
40638;DHT22;26336;44.696;10.622;2023-01-29T08:24:02;2.40;99.90
40638;DHT22;26336;44.696;10.622;2023-01-29T08:27:06;2.50;99.90
40638;DHT22;26336;44.696;10.622;2023-01-29T08:30:11;2.60;99.90
40638;DHT22;26336;44.696;10.622;2023-01-29T08:33:14;2.60;99.90
40638;DHT22;26336;44.696;10.622;2023-01-29T08:36:19;2.70;99.90
40638;DHT22;26336;44.696;10.622;2023-01-29T08:39:22;2.80;99.90
40638;DHT22;26336;44.696;10.622;2023-01-29T08:42:26;2.90;99.90
40638;DHT22;26336;44.696;10.622;2023-01-29T08:45:33;3.00;99.90
40638;DHT22;26336;44.696;10.622;2023-01-29T08:48:37;3.10;99.90
40638;DHT22;26336;44.696;10.622;2023-01-29T08:51:41;3.20;99.90
40638;DHT22;26336;44.696;10.622;2023-01-29T08:54:45;3.30;99.90
40638;DHT22;26336;44.696;10.622;2023-01-29T08:57:49;3.30;99.90
40638;DHT22;26336;44.696;10.622;2023-01-29T09:00:53;3.40;99.90
40638;DHT22;26336;44.696;10.622;2023-01-29T09:03:56;3.50;99.90
40638;DHT22;26336;44.696;10.622;2023-01-29T09:07:01;3.50;99.90
40638;DHT22;26336;44.696;10.622;2023-01-29T09:10:05;3.70;99.90
40638;DHT22;26336;44.696;10.622;2023-01-29T09:13:09;3.80;99.90
40638;DHT22;26336;44.696;10.622;2023-01-29T09:16:13;3.80;99.90
40638;DHT22;26336;44.696;10.622;2023-01-29T09:19:17;3.90;99.90
40638;DHT22;26336;44.696;10.622;2023-01-29T09:22:21;4.00;99.90
40638;DHT22;26336;44.696;10.622;2023-01-29T09:25:25;4.10;99.90
40638;DHT22;26336;44.696;10.622;2023-01-29T09:28:29;4.20;99.90
40638;DHT22;26336;44.696;10.622;2023-01-29T09:31:33;4.30;99.90
40638;DHT22;26336;44.696;10.622;2023-01-29T09:34:37;4.30;99.90
40638;DHT22;26336;44.696;10.622;2023-01-29T09:37:41;4.40;99.90
40638;DHT22;26336;44.696;10.622;2023-01-29T09:44:23;4.50;99.90
40638;DHT22;26336;44.696;10.622;2023-01-29T09:47:29;4.60;99.90
40638;DHT22;26336;44.696;10.622;2023-01-29T09:50:40;4.60;99.90
40638;DHT22;26336;44.696;10.622;2023-01-29T09:53:57;4.70;99.90
40638;DHT22;26336;44.696;10.622;2023-01-29T09:57:09;4.80;99.90
40638;DHT22;26336;44.696;10.622;2023-01-29T10:00:34;4.90;99.90
40638;DHT22;26336;44.696;10.622;2023-01-29T10:04:05;5.00;99.90
40638;DHT22;26336;44.696;10.622;2023-01-29T10:10:43;5.10;99.90
40638;DHT22;26336;44.696;10.622;2023-01-29T10:14:13;5.10;99.90
40638;DHT22;26336;44.696;10.622;2023-01-29T10:17:52;5.10;99.90
40638;DHT22;26336;44.696;10.622;2023-01-29T10:21:07;5.20;99.90
40638;DHT22;26336;44.696;10.622;2023-01-29T10:24:53;5.30;99.90
40638;DHT22;26336;44.696;10.622;2023-01-29T10:28:00;5.40;99.90
40638;DHT22;26336;44.696;10.622;2023-01-29T10:34:28;5.50;99.90
40638;DHT22;26336;44.696;10.622;2023-01-29T10:37:41;5.60;99.90
40638;DHT22;26336;44.696;10.622;2023-01-29T10:41:11;5.60;99.90
40638;DHT22;26336;44.696;10.622;2023-01-29T10:44:26;5.60;99.90
40638;DHT22;26336;44.696;10.622;2023-01-29T10:51:32;5.70;99.90
40638;DHT22;26336;44.696;10.622;2023-01-29T11:01:24;6.10;99.90
40638;DHT22;26336;44.696;10.622;2023-01-29T11:04:30;6.10;99.90
40638;DHT22;26336;44.696;10.622;2023-01-29T11:07:35;6.10;99.90
40638;DHT22;26336;44.696;10.622;2023-01-29T11:11:00;6.20;99.90
40638;DHT22;26336;44.696;10.622;2023-01-29T11:14:15;6.20;99.90
40638;DHT22;26336;44.696;10.622;2023-01-29T11:17:23;6.20;99.90
40638;DHT22;26336;44.696;10.622;2023-01-29T11:20:28;6.30;99.90
40638;DHT22;26336;44.696;10.622;2023-01-29T11:23:32;6.30;99.90
40638;DHT22;26336;44.696;10.622;2023-01-29T11:26:39;6.30;99.90
40638;DHT22;26336;44.696;10.622;2023-01-29T11:29:47;6.40;99.90
40638;DHT22;26336;44.696;10.622;2023-01-29T11:36:30;6.40;99.90
40638;DHT22;26336;44.696;10.622;2023-01-29T11:39:42;6.50;99.90
40638;DHT22;26336;44.696;10.622;2023-01-29T11:42:48;6.40;99.90
40638;DHT22;26336;44.696;10.622;2023-01-29T11:45:58;6.50;99.90
40638;DHT22;26336;44.696;10.622;2023-01-29T11:49:03;6.50;99.90
40638;DHT22;26336;44.696;10.622;2023-01-29T11:52:08;6.60;99.90
40638;DHT22;26336;44.696;10.622;2023-01-29T11:55:22;6.70;99.90
40638;DHT22;26336;44.696;10.622;2023-01-29T11:58:29;6.60;99.90
40638;DHT22;26336;44.696;10.622;2023-01-29T12:01:37;6.60;99.90
40638;DHT22;26336;44.696;10.622;2023-01-29T12:04:41;6.60;99.90
40638;DHT22;26336;44.696;10.622;2023-01-29T12:07:49;6.60;99.90
40638;DHT22;26336;44.696;10.622;2023-01-29T12:11:10;6.60;99.90
40638;DHT22;26336;44.696;10.622;2023-01-29T12:14:34;6.70;99.90
40638;DHT22;26336;44.696;10.622;2023-01-29T12:17:41;6.70;99.90
40638;DHT22;26336;44.696;10.622;2023-01-29T12:20:50;6.70;99.90
40638;DHT22;26336;44.696;10.622;2023-01-29T12:24:05;6.80;99.90
40638;DHT22;26336;44.696;10.622;2023-01-29T12:27:17;6.80;99.90
40638;DHT22;26336;44.696;10.622;2023-01-29T12:30:25;6.80;99.90
40638;DHT22;26336;44.696;10.622;2023-01-29T12:40:30;6.80;99.90
40638;DHT22;26336;44.696;10.622;2023-01-29T12:43:45;6.90;99.90
40638;DHT22;26336;44.696;10.622;2023-01-29T12:46:55;6.90;99.90
40638;DHT22;26336;44.696;10.622;2023-01-29T12:50:06;7.00;99.90
40638;DHT22;26336;44.696;10.622;2023-01-29T12:53:24;7.00;99.90
40638;DHT22;26336;44.696;10.622;2023-01-29T12:56:36;7.00;99.90
40638;DHT22;26336;44.696;10.622;2023-01-29T13:03:44;7.10;99.90
40638;DHT22;26336;44.696;10.622;2023-01-29T13:06:53;7.10;99.90
40638;DHT22;26336;44.696;10.622;2023-01-29T13:10:06;7.10;99.90
40638;DHT22;26336;44.696;10.622;2023-01-29T13:13:29;7.20;99.90
40638;DHT22;26336;44.696;10.622;2023-01-29T13:16:39;7.20;99.90
40638;DHT22;26336;44.696;10.622;2023-01-29T13:19:47;7.20;99.90
40638;DHT22;26336;44.696;10.622;2023-01-29T13:22:55;7.20;99.90
40638;DHT22;26336;44.696;10.622;2023-01-29T13:26:01;7.30;99.90
40638;DHT22;26336;44.696;10.622;2023-01-29T13:29:05;7.30;99.90
40638;DHT22;26336;44.696;10.622;2023-01-29T13:32:08;7.30;99.90
40638;DHT22;26336;44.696;10.622;2023-01-29T13:35:13;7.20;99.90
40638;DHT22;26336;44.696;10.622;2023-01-29T13:38:24;7.10;99.90
40638;DHT22;26336;44.696;10.622;2023-01-29T13:41:40;7.20;99.90
40638;DHT22;26336;44.696;10.622;2023-01-29T13:44:53;7.30;99.90
40638;DHT22;26336;44.696;10.622;2023-01-29T13:48:26;7.30;99.90
40638;DHT22;26336;44.696;10.622;2023-01-29T13:51:34;7.40;99.90
40638;DHT22;26336;44.696;10.622;2023-01-29T13:54:39;7.40;99.90
40638;DHT22;26336;44.696;10.622;2023-01-29T14:00:49;7.50;99.90
40638;DHT22;26336;44.696;10.622;2023-01-29T14:03:55;7.40;99.90
40638;DHT22;26336;44.696;10.622;2023-01-29T14:07:01;7.30;99.90
40638;DHT22;26336;44.696;10.622;2023-01-29T14:10:15;7.20;99.90
40638;DHT22;26336;44.696;10.622;2023-01-29T14:16:25;7.40;99.90
40638;DHT22;26336;44.696;10.622;2023-01-29T14:19:29;7.40;99.90
40638;DHT22;26336;44.696;10.622;2023-01-29T14:22:33;7.20;99.90
40638;DHT22;26336;44.696;10.622;2023-01-29T14:25:39;7.30;99.90
40638;DHT22;26336;44.696;10.622;2023-01-29T14:28:52;7.30;99.90
40638;DHT22;26336;44.696;10.622;2023-01-29T14:35:20;7.20;99.90
40638;DHT22;26336;44.696;10.622;2023-01-29T14:38:26;7.40;99.90
40638;DHT22;26336;44.696;10.622;2023-01-29T14:41:32;7.40;99.90
40638;DHT22;26336;44.696;10.622;2023-01-29T14:44:56;7.40;99.90
40638;DHT22;26336;44.696;10.622;2023-01-29T14:51:15;7.50;99.90
40638;DHT22;26336;44.696;10.622;2023-01-29T14:54:25;7.50;99.90
40638;DHT22;26336;44.696;10.622;2023-01-29T14:57:30;7.40;99.90
40638;DHT22;26336;44.696;10.622;2023-01-29T15:00:37;7.50;99.90
40638;DHT22;26336;44.696;10.622;2023-01-29T15:03:50;7.50;99.90
40638;DHT22;26336;44.696;10.622;2023-01-29T15:07:02;7.40;99.90
40638;DHT22;26336;44.696;10.622;2023-01-29T15:10:33;7.40;99.90
40638;DHT22;26336;44.696;10.622;2023-01-29T15:14:16;7.40;99.90
40638;DHT22;26336;44.696;10.622;2023-01-29T15:17:40;7.30;99.90
40638;DHT22;26336;44.696;10.622;2023-01-29T15:20:48;7.20;99.90
40638;DHT22;26336;44.696;10.622;2023-01-29T15:24:03;7.20;99.90
40638;DHT22;26336;44.696;10.622;2023-01-29T15:27:16;7.20;99.90
40638;DHT22;26336;44.696;10.622;2023-01-29T15:30:27;7.20;99.90
40638;DHT22;26336;44.696;10.622;2023-01-29T15:33:32;7.20;99.90
40638;DHT22;26336;44.696;10.622;2023-01-29T15:36:37;7.20;99.90
40638;DHT22;26336;44.696;10.622;2023-01-29T15:39:43;7.20;99.90
40638;DHT22;26336;44.696;10.622;2023-01-29T15:42:47;7.20;99.90
40638;DHT22;26336;44.696;10.622;2023-01-29T15:45:57;7.20;99.90
40638;DHT22;26336;44.696;10.622;2023-01-29T15:49:07;7.10;99.90
40638;DHT22;26336;44.696;10.622;2023-01-29T15:52:20;7.00;99.90
40638;DHT22;26336;44.696;10.622;2023-01-29T15:55:26;6.90;99.90
40638;DHT22;26336;44.696;10.622;2023-01-29T15:58:31;6.90;99.90
40638;DHT22;26336;44.696;10.622;2023-01-29T16:01:35;6.90;99.90
40638;DHT22;26336;44.696;10.622;2023-01-29T16:04:39;6.80;99.90
40638;DHT22;26336;44.696;10.622;2023-01-29T16:07:44;6.80;99.90
40638;DHT22;26336;44.696;10.622;2023-01-29T16:10:54;6.70;99.90
40638;DHT22;26336;44.696;10.622;2023-01-29T16:14:00;6.60;99.90
40638;DHT22;26336;44.696;10.622;2023-01-29T16:17:29;6.60;99.90
40638;DHT22;26336;44.696;10.622;2023-01-29T16:20:44;6.60;99.90
40638;DHT22;26336;44.696;10.622;2023-01-29T16:23:50;6.60;99.90
40638;DHT22;26336;44.696;10.622;2023-01-29T16:26:58;6.50;99.90
40638;DHT22;26336;44.696;10.622;2023-01-29T16:30:04;6.50;99.90
40638;DHT22;26336;44.696;10.622;2023-01-29T16:33:14;6.50;99.90
40638;DHT22;26336;44.696;10.622;2023-01-29T16:36:24;6.40;99.90
40638;DHT22;26336;44.696;10.622;2023-01-29T16:39:38;6.40;99.90
40638;DHT22;26336;44.696;10.622;2023-01-29T16:42:46;6.40;99.90
40638;DHT22;26336;44.696;10.622;2023-01-29T16:46:04;6.40;99.90
40638;DHT22;26336;44.696;10.622;2023-01-29T16:52:34;6.20;99.90
40638;DHT22;26336;44.696;10.622;2023-01-29T16:55:42;6.20;99.90
40638;DHT22;26336;44.696;10.622;2023-01-29T16:58:50;6.20;99.90
40638;DHT22;26336;44.696;10.622;2023-01-29T17:01:54;6.10;99.90
40638;DHT22;26336;44.696;10.622;2023-01-29T17:05:06;6.10;99.90
40638;DHT22;26336;44.696;10.622;2023-01-29T17:08:23;6.10;99.90
40638;DHT22;26336;44.696;10.622;2023-01-29T17:11:36;6.10;99.90
40638;DHT22;26336;44.696;10.622;2023-01-29T17:14:54;6.00;99.90
40638;DHT22;26336;44.696;10.622;2023-01-29T17:17:59;6.00;99.90
40638;DHT22;26336;44.696;10.622;2023-01-29T17:21:02;5.90;99.90
40638;DHT22;26336;44.696;10.622;2023-01-29T17:24:07;5.90;99.90
40638;DHT22;26336;44.696;10.622;2023-01-29T17:27:21;5.80;99.90
40638;DHT22;26336;44.696;10.622;2023-01-29T17:30:28;5.80;99.90
40638;DHT22;26336;44.696;10.622;2023-01-29T17:33:41;5.80;99.90
40638;DHT22;26336;44.696;10.622;2023-01-29T17:36:45;5.80;99.90
40638;DHT22;26336;44.696;10.622;2023-01-29T17:39:49;5.70;99.90
40638;DHT22;26336;44.696;10.622;2023-01-29T17:42:55;5.60;99.90
40638;DHT22;26336;44.696;10.622;2023-01-29T17:45:59;5.60;99.90
40638;DHT22;26336;44.696;10.622;2023-01-29T17:49:16;5.60;99.90
40638;DHT22;26336;44.696;10.622;2023-01-29T17:52:21;5.60;99.90
40638;DHT22;26336;44.696;10.622;2023-01-29T17:55:25;5.60;99.90
40638;DHT22;26336;44.696;10.622;2023-01-29T17:58:29;5.60;99.90
40638;DHT22;26336;44.696;10.622;2023-01-29T18:01:33;5.50;99.90
40638;DHT22;26336;44.696;10.622;2023-01-29T18:04:37;5.50;99.90
40638;DHT22;26336;44.696;10.622;2023-01-29T18:07:43;5.50;99.90
40638;DHT22;26336;44.696;10.622;2023-01-29T18:10:47;5.50;99.90
40638;DHT22;26336;44.696;10.622;2023-01-29T18:13:51;5.50;99.90
40638;DHT22;26336;44.696;10.622;2023-01-29T18:16:55;5.40;99.90
40638;DHT22;26336;44.696;10.622;2023-01-29T18:19:59;5.30;99.90
40638;DHT22;26336;44.696;10.622;2023-01-29T18:23:03;5.20;99.90
40638;DHT22;26336;44.696;10.622;2023-01-29T18:26:14;5.20;99.90
40638;DHT22;26336;44.696;10.622;2023-01-29T18:29:18;5.20;99.90
40638;DHT22;26336;44.696;10.622;2023-01-29T18:32:22;5.20;99.90
40638;DHT22;26336;44.696;10.622;2023-01-29T18:35:27;5.20;99.90
40638;DHT22;26336;44.696;10.622;2023-01-29T18:38:31;5.10;99.90
40638;DHT22;26336;44.696;10.622;2023-01-29T18:41:37;5.10;99.90
40638;DHT22;26336;44.696;10.622;2023-01-29T18:44:44;5.10;99.90
40638;DHT22;26336;44.696;10.622;2023-01-29T18:47:48;5.00;99.90
40638;DHT22;26336;44.696;10.622;2023-01-29T18:50:52;5.10;99.90
40638;DHT22;26336;44.696;10.622;2023-01-29T18:53:56;5.00;99.90
40638;DHT22;26336;44.696;10.622;2023-01-29T18:57:00;5.00;99.90
40638;DHT22;26336;44.696;10.622;2023-01-29T19:00:04;5.00;99.90
40638;DHT22;26336;44.696;10.622;2023-01-29T19:03:09;5.00;99.90
40638;DHT22;26336;44.696;10.622;2023-01-29T19:06:13;5.00;99.90
40638;DHT22;26336;44.696;10.622;2023-01-29T19:09:17;5.00;99.90
40638;DHT22;26336;44.696;10.622;2023-01-29T19:12:21;5.00;99.90
40638;DHT22;26336;44.696;10.622;2023-01-29T19:15:25;5.00;99.90
40638;DHT22;26336;44.696;10.622;2023-01-29T19:18:29;4.90;99.90
40638;DHT22;26336;44.696;10.622;2023-01-29T19:21:33;4.90;99.90
40638;DHT22;26336;44.696;10.622;2023-01-29T19:24:39;4.90;99.90
40638;DHT22;26336;44.696;10.622;2023-01-29T19:27:46;4.80;99.90
40638;DHT22;26336;44.696;10.622;2023-01-29T19:30:50;4.80;99.90
40638;DHT22;26336;44.696;10.622;2023-01-29T19:33:54;4.80;99.90
40638;DHT22;26336;44.696;10.622;2023-01-29T19:36:58;4.80;99.90
40638;DHT22;26336;44.696;10.622;2023-01-29T19:40:03;4.70;99.90
40638;DHT22;26336;44.696;10.622;2023-01-29T19:43:07;4.70;99.90
40638;DHT22;26336;44.696;10.622;2023-01-29T19:46:11;4.70;99.90
40638;DHT22;26336;44.696;10.622;2023-01-29T19:49:15;4.70;99.90
40638;DHT22;26336;44.696;10.622;2023-01-29T19:52:19;4.70;99.90
40638;DHT22;26336;44.696;10.622;2023-01-29T19:55:38;4.60;99.90
40638;DHT22;26336;44.696;10.622;2023-01-29T19:58:42;4.60;99.90
40638;DHT22;26336;44.696;10.622;2023-01-29T20:01:47;4.60;99.90
40638;DHT22;26336;44.696;10.622;2023-01-29T20:04:51;4.50;99.90
40638;DHT22;26336;44.696;10.622;2023-01-29T20:07:55;4.50;99.90
40638;DHT22;26336;44.696;10.622;2023-01-29T20:11:01;4.50;99.90
40638;DHT22;26336;44.696;10.622;2023-01-29T20:14:06;4.40;99.90
40638;DHT22;26336;44.696;10.622;2023-01-29T20:17:10;4.50;99.90
40638;DHT22;26336;44.696;10.622;2023-01-29T20:20:14;4.40;99.90
40638;DHT22;26336;44.696;10.622;2023-01-29T20:23:19;4.30;99.90
40638;DHT22;26336;44.696;10.622;2023-01-29T20:26:23;4.20;99.90
40638;DHT22;26336;44.696;10.622;2023-01-29T20:29:27;4.20;99.90
40638;DHT22;26336;44.696;10.622;2023-01-29T20:32:31;4.20;99.90
40638;DHT22;26336;44.696;10.622;2023-01-29T20:35:37;4.20;99.90
40638;DHT22;26336;44.696;10.622;2023-01-29T20:38:41;4.20;99.90
40638;DHT22;26336;44.696;10.622;2023-01-29T20:41:45;4.20;99.90
40638;DHT22;26336;44.696;10.622;2023-01-29T20:44:49;4.20;99.90
40638;DHT22;26336;44.696;10.622;2023-01-29T20:47:52;4.20;99.90
40638;DHT22;26336;44.696;10.622;2023-01-29T20:51:05;4.20;99.90
40638;DHT22;26336;44.696;10.622;2023-01-29T20:54:10;4.20;99.90
40638;DHT22;26336;44.696;10.622;2023-01-29T20:57:15;4.20;99.90
40638;DHT22;26336;44.696;10.622;2023-01-29T21:00:19;4.20;99.90
40638;DHT22;26336;44.696;10.622;2023-01-29T21:03:23;4.10;99.90
40638;DHT22;26336;44.696;10.622;2023-01-29T21:06:27;4.10;99.90
40638;DHT22;26336;44.696;10.622;2023-01-29T21:09:32;4.00;99.90
40638;DHT22;26336;44.696;10.622;2023-01-29T21:12:36;3.90;99.90
40638;DHT22;26336;44.696;10.622;2023-01-29T21:15:41;3.90;99.90
40638;DHT22;26336;44.696;10.622;2023-01-29T21:18:45;3.80;99.90
40638;DHT22;26336;44.696;10.622;2023-01-29T21:21:50;3.80;99.90
40638;DHT22;26336;44.696;10.622;2023-01-29T21:24:54;3.80;99.90